sensor_id;sensor_type;location;lat;lon;timestamp;P1;durP1;ratioP1;P2;durP2;ratioP2
23658;SDS011;12006;42.666;23.326;2023-06-24T00:02:00;10.43;;;9.43;;
23658;SDS011;12006;42.666;23.326;2023-06-24T00:04:26;9.88;;;8.88;;
23658;SDS011;12006;42.666;23.326;2023-06-24T00:06:52;11.20;;;9.35;;
23658;SDS011;12006;42.666;23.326;2023-06-24T00:09:17;10.20;;;9.20;;
23658;SDS011;12006;42.666;23.326;2023-06-24T00:11:43;9.90;;;8.90;;
23658;SDS011;12006;42.666;23.326;2023-06-24T00:14:08;9.55;;;8.57;;
23658;SDS011;12006;42.666;23.326;2023-06-24T00:16:33;10.27;;;9.27;;
23658;SDS011;12006;42.666;23.326;2023-06-24T00:19:01;9.80;;;8.80;;
23658;SDS011;12006;42.666;23.326;2023-06-24T00:21:27;8.60;;;7.82;;
23658;SDS011;12006;42.666;23.326;2023-06-24T00:23:57;8.90;;;8.10;;
23658;SDS011;12006;42.666;23.326;2023-06-24T00:26:23;9.90;;;8.88;;
23658;SDS011;12006;42.666;23.326;2023-06-24T00:28:49;8.60;;;7.75;;
23658;SDS011;12006;42.666;23.326;2023-06-24T00:31:14;9.82;;;8.57;;
23658;SDS011;12006;42.666;23.326;2023-06-24T00:33:40;9.93;;;8.93;;
23658;SDS011;12006;42.666;23.326;2023-06-24T00:36:06;10.27;;;9.25;;
23658;SDS011;12006;42.666;23.326;2023-06-24T00:38:36;9.93;;;8.93;;
23658;SDS011;12006;42.666;23.326;2023-06-24T00:41:02;10.32;;;9.43;;
23658;SDS011;12006;42.666;23.326;2023-06-24T00:43:28;11.75;;;9.27;;
23658;SDS011;12006;42.666;23.326;2023-06-24T00:45:55;9.65;;;8.52;;
23658;SDS011;12006;42.666;23.326;2023-06-24T00:48:21;8.75;;;7.88;;
23658;SDS011;12006;42.666;23.326;2023-06-24T00:50:47;9.90;;;8.90;;
23658;SDS011;12006;42.666;23.326;2023-06-24T00:53:14;9.52;;;8.63;;
23658;SDS011;12006;42.666;23.326;2023-06-24T00:55:40;10.35;;;9.35;;
23658;SDS011;12006;42.666;23.326;2023-06-24T00:58:05;10.90;;;9.80;;
23658;SDS011;12006;42.666;23.326;2023-06-24T01:00:31;11.15;;;9.00;;
23658;SDS011;12006;42.666;23.326;2023-06-24T01:02:59;11.80;;;10.60;;
23658;SDS011;12006;42.666;23.326;2023-06-24T01:05:28;10.93;;;9.65;;
23658;SDS011;12006;42.666;23.326;2023-06-24T01:08:00;11.75;;;10.50;;
23658;SDS011;12006;42.666;23.326;2023-06-24T01:10:26;10.52;;;9.52;;
23658;SDS011;12006;42.666;23.326;2023-06-24T01:12:52;10.65;;;9.65;;
23658;SDS011;12006;42.666;23.326;2023-06-24T01:15:17;9.93;;;9.02;;
23658;SDS011;12006;42.666;23.326;2023-06-24T01:20:28;10.00;;;9.00;;
23658;SDS011;12006;42.666;23.326;2023-06-24T01:25:55;10.82;;;9.25;;
23658;SDS011;12006;42.666;23.326;2023-06-24T01:36:31;10.43;;;9.43;;
23658;SDS011;12006;42.666;23.326;2023-06-24T01:39:03;11.13;;;9.90;;
23658;SDS011;12006;42.666;23.326;2023-06-24T01:41:32;10.65;;;9.55;;
23658;SDS011;12006;42.666;23.326;2023-06-24T01:44:01;10.88;;;9.73;;
23658;SDS011;12006;42.666;23.326;2023-06-24T01:46:28;10.10;;;9.10;;
23658;SDS011;12006;42.666;23.326;2023-06-24T01:48:55;12.45;;;10.23;;
23658;SDS011;12006;42.666;23.326;2023-06-24T01:51:23;11.20;;;10.10;;
23658;SDS011;12006;42.666;23.326;2023-06-24T01:53:51;10.30;;;9.10;;
23658;SDS011;12006;42.666;23.326;2023-06-24T01:56:20;13.43;;;10.15;;
23658;SDS011;12006;42.666;23.326;2023-06-24T01:58:50;11.40;;;10.30;;
23658;SDS011;12006;42.666;23.326;2023-06-24T02:01:17;10.52;;;9.52;;
23658;SDS011;12006;42.666;23.326;2023-06-24T02:03:42;12.18;;;10.82;;
23658;SDS011;12006;42.666;23.326;2023-06-24T02:06:08;12.50;;;11.20;;
23658;SDS011;12006;42.666;23.326;2023-06-24T02:08:35;13.00;;;10.45;;
23658;SDS011;12006;42.666;23.326;2023-06-24T02:11:03;12.77;;;10.77;;
23658;SDS011;12006;42.666;23.326;2023-06-24T02:13:30;10.95;;;9.85;;
23658;SDS011;12006;42.666;23.326;2023-06-24T02:16:00;11.88;;;10.63;;
23658;SDS011;12006;42.666;23.326;2023-06-24T02:18:28;11.15;;;9.95;;
23658;SDS011;12006;42.666;23.326;2023-06-24T02:20:53;10.98;;;9.88;;
23658;SDS011;12006;42.666;23.326;2023-06-24T02:23:21;12.07;;;10.77;;
23658;SDS011;12006;42.666;23.326;2023-06-24T02:25:49;12.77;;;11.25;;
23658;SDS011;12006;42.666;23.326;2023-06-24T02:28:15;14.70;;;11.70;;
23658;SDS011;12006;42.666;23.326;2023-06-24T03:54:38;16.13;;;12.32;;
23658;SDS011;12006;42.666;23.326;2023-06-24T03:57:05;15.30;;;13.38;;
23658;SDS011;12006;42.666;23.326;2023-06-24T03:59:32;16.73;;;14.23;;
23658;SDS011;12006;42.666;23.326;2023-06-24T04:01:58;14.32;;;12.65;;
23658;SDS011;12006;42.666;23.326;2023-06-24T04:04:23;15.52;;;13.05;;
23658;SDS011;12006;42.666;23.326;2023-06-24T04:06:48;14.82;;;13.23;;
23658;SDS011;12006;42.666;23.326;2023-06-24T04:09:14;13.73;;;12.32;;
23658;SDS011;12006;42.666;23.326;2023-06-24T04:11:39;14.48;;;12.82;;
23658;SDS011;12006;42.666;23.326;2023-06-24T04:14:04;15.98;;;12.70;;
23658;SDS011;12006;42.666;23.326;2023-06-24T04:16:31;16.38;;;12.93;;
23658;SDS011;12006;42.666;23.326;2023-06-24T04:18:57;13.93;;;11.98;;
23658;SDS011;12006;42.666;23.326;2023-06-24T04:21:22;13.52;;;11.93;;
23658;SDS011;12006;42.666;23.326;2023-06-24T04:23:48;12.55;;;11.35;;
23658;SDS011;12006;42.666;23.326;2023-06-24T04:26:13;12.85;;;11.55;;
23658;SDS011;12006;42.666;23.326;2023-06-24T04:28:39;14.40;;;12.15;;
23658;SDS011;12006;42.666;23.326;2023-06-24T04:31:05;13.73;;;12.32;;
23658;SDS011;12006;42.666;23.326;2023-06-24T04:33:30;12.20;;;11.02;;
23658;SDS011;12006;42.666;23.326;2023-06-24T04:35:55;13.00;;;11.73;;
23658;SDS011;12006;42.666;23.326;2023-06-24T04:38:21;14.73;;;12.30;;
23658;SDS011;12006;42.666;23.326;2023-06-24T04:40:48;13.23;;;11.82;;
23658;SDS011;12006;42.666;23.326;2023-06-24T04:43:13;14.05;;;11.98;;
23658;SDS011;12006;42.666;23.326;2023-06-24T04:45:38;12.73;;;11.43;;
23658;SDS011;12006;42.666;23.326;2023-06-24T04:48:04;13.18;;;11.80;;
23658;SDS011;12006;42.666;23.326;2023-06-24T04:50:30;13.95;;;11.38;;
23658;SDS011;12006;42.666;23.326;2023-06-24T04:52:55;13.75;;;12.45;;
23658;SDS011;12006;42.666;23.326;2023-06-24T04:55:22;14.05;;;12.68;;
23658;SDS011;12006;42.666;23.326;2023-06-24T04:57:48;13.50;;;12.20;;
23658;SDS011;12006;42.666;23.326;2023-06-24T05:00:13;12.88;;;11.68;;
23658;SDS011;12006;42.666;23.326;2023-06-24T05:02:39;13.68;;;12.18;;
23658;SDS011;12006;42.666;23.326;2023-06-24T05:05:05;13.68;;;12.15;;
23658;SDS011;12006;42.666;23.326;2023-06-24T05:07:30;12.07;;;10.98;;
23658;SDS011;12006;42.666;23.326;2023-06-24T05:09:55;12.50;;;11.20;;
23658;SDS011;12006;42.666;23.326;2023-06-24T05:12:21;12.75;;;11.45;;
23658;SDS011;12006;42.666;23.326;2023-06-24T05:14:50;13.15;;;11.95;;
23658;SDS011;12006;42.666;23.326;2023-06-24T05:17:17;13.48;;;12.18;;
23658;SDS011;12006;42.666;23.326;2023-06-24T05:19:42;11.95;;;10.80;;
23658;SDS011;12006;42.666;23.326;2023-06-24T05:22:08;13.10;;;11.80;;
23658;SDS011;12006;42.666;23.326;2023-06-24T05:24:34;13.40;;;11.35;;
23658;SDS011;12006;42.666;23.326;2023-06-24T05:27:03;12.95;;;11.75;;
23658;SDS011;12006;42.666;23.326;2023-06-24T05:29:30;12.27;;;11.10;;
23658;SDS011;12006;42.666;23.326;2023-06-24T05:31:56;13.73;;;11.40;;
23658;SDS011;12006;42.666;23.326;2023-06-24T05:34:21;11.88;;;10.68;;
23658;SDS011;12006;42.666;23.326;2023-06-24T05:36:46;11.05;;;9.95;;
23658;SDS011;12006;42.666;23.326;2023-06-24T05:39:12;11.55;;;10.45;;
23658;SDS011;12006;42.666;23.326;2023-06-24T05:41:38;10.30;;;9.30;;
23658;SDS011;12006;42.666;23.326;2023-06-24T05:44:07;11.05;;;10.05;;
23658;SDS011;12006;42.666;23.326;2023-06-24T05:46:35;10.65;;;9.63;;
23658;SDS011;12006;42.666;23.326;2023-06-24T05:49:00;10.45;;;9.48;;
23658;SDS011;12006;42.666;23.326;2023-06-24T05:51:26;12.10;;;10.35;;
23658;SDS011;12006;42.666;23.326;2023-06-24T05:53:51;10.77;;;9.77;;
23658;SDS011;12006;42.666;23.326;2023-06-24T05:56:17;10.45;;;9.55;;
23658;SDS011;12006;42.666;23.326;2023-06-24T05:58:43;9.73;;;8.73;;
23658;SDS011;12006;42.666;23.326;2023-06-24T06:01:09;10.52;;;9.55;;
23658;SDS011;12006;42.666;23.326;2023-06-24T06:03:34;10.15;;;9.10;;
23658;SDS011;12006;42.666;23.326;2023-06-24T06:06:00;9.43;;;8.63;;
23658;SDS011;12006;42.666;23.326;2023-06-24T06:08:25;9.68;;;8.80;;
23658;SDS011;12006;42.666;23.326;2023-06-24T06:10:51;11.30;;;10.25;;
23658;SDS011;12006;42.666;23.326;2023-06-24T06:13:16;10.77;;;9.77;;
23658;SDS011;12006;42.666;23.326;2023-06-24T06:15:41;11.27;;;10.13;;
23658;SDS011;12006;42.666;23.326;2023-06-24T06:18:07;11.05;;;10.05;;
23658;SDS011;12006;42.666;23.326;2023-06-24T06:20:32;11.70;;;10.55;;
23658;SDS011;12006;42.666;23.326;2023-06-24T06:22:58;11.43;;;10.20;;
23658;SDS011;12006;42.666;23.326;2023-06-24T06:25:23;10.93;;;9.93;;
23658;SDS011;12006;42.666;23.326;2023-06-24T06:27:48;11.38;;;10.32;;
23658;SDS011;12006;42.666;23.326;2023-06-24T06:30:14;11.48;;;10.38;;
23658;SDS011;12006;42.666;23.326;2023-06-24T06:32:40;11.70;;;10.60;;
23658;SDS011;12006;42.666;23.326;2023-06-24T06:35:05;11.18;;;10.07;;
23658;SDS011;12006;42.666;23.326;2023-06-24T06:37:31;11.55;;;10.45;;
23658;SDS011;12006;42.666;23.326;2023-06-24T06:39:57;11.25;;;10.25;;
23658;SDS011;12006;42.666;23.326;2023-06-24T06:42:22;10.65;;;9.65;;
23658;SDS011;12006;42.666;23.326;2023-06-24T06:44:48;10.75;;;9.68;;
23658;SDS011;12006;42.666;23.326;2023-06-24T06:47:13;11.27;;;10.13;;
23658;SDS011;12006;42.666;23.326;2023-06-24T06:49:39;11.20;;;9.70;;
23658;SDS011;12006;42.666;23.326;2023-06-24T06:52:05;11.80;;;10.68;;
23658;SDS011;12006;42.666;23.326;2023-06-24T06:54:30;11.70;;;10.50;;
23658;SDS011;12006;42.666;23.326;2023-06-24T06:56:59;12.35;;;10.95;;
23658;SDS011;12006;42.666;23.326;2023-06-24T06:59:29;11.52;;;10.10;;
23658;SDS011;12006;42.666;23.326;2023-06-24T07:01:55;12.73;;;11.38;;
23658;SDS011;12006;42.666;23.326;2023-06-24T07:04:20;11.32;;;10.23;;
23658;SDS011;12006;42.666;23.326;2023-06-24T07:06:45;11.38;;;10.30;;
23658;SDS011;12006;42.666;23.326;2023-06-24T07:09:11;12.77;;;10.30;;
23658;SDS011;12006;42.666;23.326;2023-06-24T07:11:36;11.10;;;10.07;;
23658;SDS011;12006;42.666;23.326;2023-06-24T07:14:02;11.90;;;10.70;;
23658;SDS011;12006;42.666;23.326;2023-06-24T07:16:27;11.55;;;10.50;;
23658;SDS011;12006;42.666;23.326;2023-06-24T07:18:52;16.85;;;11.23;;
23658;SDS011;12006;42.666;23.326;2023-06-24T07:21:18;12.30;;;11.20;;
23658;SDS011;12006;42.666;23.326;2023-06-24T07:23:43;10.35;;;9.50;;
23658;SDS011;12006;42.666;23.326;2023-06-24T07:26:09;11.05;;;9.95;;
23658;SDS011;12006;42.666;23.326;2023-06-24T07:28:34;10.90;;;9.90;;
23658;SDS011;12006;42.666;23.326;2023-06-24T07:31:00;11.25;;;10.15;;
23658;SDS011;12006;42.666;23.326;2023-06-24T07:33:25;10.68;;;9.60;;
23658;SDS011;12006;42.666;23.326;2023-06-24T07:35:50;11.15;;;10.15;;
23658;SDS011;12006;42.666;23.326;2023-06-24T07:38:16;10.65;;;9.65;;
23658;SDS011;12006;42.666;23.326;2023-06-24T07:40:41;10.93;;;9.82;;
23658;SDS011;12006;42.666;23.326;2023-06-24T07:43:07;10.98;;;9.88;;
23658;SDS011;12006;42.666;23.326;2023-06-24T07:45:32;10.32;;;9.32;;
23658;SDS011;12006;42.666;23.326;2023-06-24T07:47:57;11.00;;;10.00;;
23658;SDS011;12006;42.666;23.326;2023-06-24T07:50:23;10.57;;;9.52;;
23658;SDS011;12006;42.666;23.326;2023-06-24T07:52:49;11.98;;;10.95;;
23658;SDS011;12006;42.666;23.326;2023-06-24T07:55:14;11.32;;;10.23;;
23658;SDS011;12006;42.666;23.326;2023-06-24T07:57:40;11.07;;;9.98;;
23658;SDS011;12006;42.666;23.326;2023-06-24T08:00:10;10.68;;;9.77;;
23658;SDS011;12006;42.666;23.326;2023-06-24T08:02:36;11.07;;;9.98;;
23658;SDS011;12006;42.666;23.326;2023-06-24T08:05:01;11.10;;;10.05;;
23658;SDS011;12006;42.666;23.326;2023-06-24T08:07:26;11.07;;;10.05;;
23658;SDS011;12006;42.666;23.326;2023-06-24T08:09:52;11.23;;;10.23;;
23658;SDS011;12006;42.666;23.326;2023-06-24T08:12:17;10.98;;;9.88;;
23658;SDS011;12006;42.666;23.326;2023-06-24T08:14:43;11.55;;;10.45;;
23658;SDS011;12006;42.666;23.326;2023-06-24T08:17:08;10.63;;;9.73;;
23658;SDS011;12006;42.666;23.326;2023-06-24T08:19:33;10.35;;;9.55;;
23658;SDS011;12006;42.666;23.326;2023-06-24T08:21:59;11.45;;;10.45;;
23658;SDS011;12006;42.666;23.326;2023-06-24T08:24:24;10.45;;;9.45;;
23658;SDS011;12006;42.666;23.326;2023-06-24T08:26:49;11.23;;;10.18;;
23658;SDS011;12006;42.666;23.326;2023-06-24T08:29:15;11.05;;;10.05;;
23658;SDS011;12006;42.666;23.326;2023-06-24T08:31:40;11.13;;;10.13;;
23658;SDS011;12006;42.666;23.326;2023-06-24T08:34:05;11.60;;;10.60;;
23658;SDS011;12006;42.666;23.326;2023-06-24T08:36:32;10.25;;;9.25;;
23658;SDS011;12006;42.666;23.326;2023-06-24T08:38:57;10.30;;;9.45;;
23658;SDS011;12006;42.666;23.326;2023-06-24T08:41:23;11.00;;;10.00;;
23658;SDS011;12006;42.666;23.326;2023-06-24T08:43:52;10.75;;;9.38;;
23658;SDS011;12006;42.666;23.326;2023-06-24T08:46:19;14.07;;;10.32;;
23658;SDS011;12006;42.666;23.326;2023-06-24T08:48:45;11.88;;;9.60;;
23658;SDS011;12006;42.666;23.326;2023-06-24T08:51:13;10.18;;;9.13;;
23658;SDS011;12006;42.666;23.326;2023-06-24T08:53:43;11.35;;;10.25;;
23658;SDS011;12006;42.666;23.326;2023-06-24T08:56:09;10.65;;;9.65;;
23658;SDS011;12006;42.666;23.326;2023-06-24T08:58:36;10.35;;;9.45;;
23658;SDS011;12006;42.666;23.326;2023-06-24T09:01:01;11.13;;;9.10;;
23658;SDS011;12006;42.666;23.326;2023-06-24T09:03:27;10.63;;;9.70;;
23658;SDS011;12006;42.666;23.326;2023-06-24T09:05:52;10.27;;;9.43;;
23658;SDS011;12006;42.666;23.326;2023-06-24T09:08:18;11.15;;;10.05;;
23658;SDS011;12006;42.666;23.326;2023-06-24T09:10:43;9.95;;;9.10;;
23658;SDS011;12006;42.666;23.326;2023-06-24T09:13:09;10.48;;;9.57;;
23658;SDS011;12006;42.666;23.326;2023-06-24T09:15:35;9.88;;;8.88;;
23658;SDS011;12006;42.666;23.326;2023-06-24T09:18:01;10.15;;;9.25;;
23658;SDS011;12006;42.666;23.326;2023-06-24T09:20:28;10.05;;;9.20;;
23658;SDS011;12006;42.666;23.326;2023-06-24T09:22:59;9.73;;;8.82;;
23658;SDS011;12006;42.666;23.326;2023-06-24T09:25:28;10.52;;;9.52;;
23658;SDS011;12006;42.666;23.326;2023-06-24T09:27:54;9.98;;;9.07;;
23658;SDS011;12006;42.666;23.326;2023-06-24T09:30:24;10.30;;;9.32;;
23658;SDS011;12006;42.666;23.326;2023-06-24T09:32:51;10.32;;;9.40;;
23658;SDS011;12006;42.666;23.326;2023-06-24T09:35:21;10.50;;;9.60;;
23658;SDS011;12006;42.666;23.326;2023-06-24T09:37:54;10.15;;;9.15;;
23658;SDS011;12006;42.666;23.326;2023-06-24T09:40:21;9.65;;;8.85;;
23658;SDS011;12006;42.666;23.326;2023-06-24T09:45:24;9.85;;;8.95;;
23658;SDS011;12006;42.666;23.326;2023-06-24T09:47:51;9.95;;;9.05;;
23658;SDS011;12006;42.666;23.326;2023-06-24T09:50:17;9.98;;;9.18;;
23658;SDS011;12006;42.666;23.326;2023-06-24T09:52:44;10.20;;;9.30;;
23658;SDS011;12006;42.666;23.326;2023-06-24T09:55:11;9.98;;;9.07;;
23658;SDS011;12006;42.666;23.326;2023-06-24T09:57:39;10.63;;;9.73;;
23658;SDS011;12006;42.666;23.326;2023-06-24T10:00:07;9.27;;;8.38;;
23658;SDS011;12006;42.666;23.326;2023-06-24T10:02:35;9.30;;;8.50;;
23658;SDS011;12006;42.666;23.326;2023-06-24T10:05:01;10.18;;;9.20;;
23658;SDS011;12006;42.666;23.326;2023-06-24T10:07:27;10.52;;;9.20;;
23658;SDS011;12006;42.666;23.326;2023-06-24T10:09:53;8.80;;;8.07;;
23658;SDS011;12006;42.666;23.326;2023-06-24T10:12:19;10.07;;;9.27;;
23658;SDS011;12006;42.666;23.326;2023-06-24T10:14:45;9.95;;;9.00;;
23658;SDS011;12006;42.666;23.326;2023-06-24T10:17:11;8.52;;;7.78;;
23658;SDS011;12006;42.666;23.326;2023-06-24T10:19:40;9.30;;;8.50;;
23658;SDS011;12006;42.666;23.326;2023-06-24T10:22:09;8.75;;;7.85;;
23658;SDS011;12006;42.666;23.326;2023-06-24T10:24:36;9.48;;;8.57;;
23658;SDS011;12006;42.666;23.326;2023-06-24T10:27:05;8.35;;;7.75;;
23658;SDS011;12006;42.666;23.326;2023-06-24T10:29:35;10.90;;;9.23;;
23658;SDS011;12006;42.666;23.326;2023-06-24T10:34:39;8.73;;;7.93;;
23658;SDS011;12006;42.666;23.326;2023-06-24T10:47:27;8.32;;;7.53;;
23658;SDS011;12006;42.666;23.326;2023-06-24T10:49:55;7.82;;;7.22;;
23658;SDS011;12006;42.666;23.326;2023-06-24T10:52:21;8.75;;;7.95;;
23658;SDS011;12006;42.666;23.326;2023-06-24T10:54:48;8.68;;;7.88;;
23658;SDS011;12006;42.666;23.326;2023-06-24T10:57:15;8.07;;;7.22;;
23658;SDS011;12006;42.666;23.326;2023-06-24T10:59:46;7.70;;;7.00;;
23658;SDS011;12006;42.666;23.326;2023-06-24T11:02:13;8.02;;;7.43;;
23658;SDS011;12006;42.666;23.326;2023-06-24T11:04:58;6.85;;;6.22;;
23658;SDS011;12006;42.666;23.326;2023-06-24T11:07:29;6.95;;;6.35;;
23658;SDS011;12006;42.666;23.326;2023-06-24T11:12:24;6.57;;;5.82;;
23658;SDS011;12006;42.666;23.326;2023-06-24T11:14:52;6.57;;;6.07;;
23658;SDS011;12006;42.666;23.326;2023-06-24T11:17:21;7.22;;;6.53;;
23658;SDS011;12006;42.666;23.326;2023-06-24T11:19:46;7.68;;;6.93;;
23658;SDS011;12006;42.666;23.326;2023-06-24T11:22:11;7.68;;;6.97;;
23658;SDS011;12006;42.666;23.326;2023-06-24T11:24:37;7.82;;;7.05;;
23658;SDS011;12006;42.666;23.326;2023-06-24T11:27:05;7.40;;;6.63;;
23658;SDS011;12006;42.666;23.326;2023-06-24T11:29:31;7.03;;;6.43;;
23658;SDS011;12006;42.666;23.326;2023-06-24T11:31:57;7.70;;;7.07;;
23658;SDS011;12006;42.666;23.326;2023-06-24T11:34:23;6.93;;;6.38;;
23658;SDS011;12006;42.666;23.326;2023-06-24T11:36:49;6.88;;;6.28;;
23658;SDS011;12006;42.666;23.326;2023-06-24T11:39:24;6.90;;;6.30;;
23658;SDS011;12006;42.666;23.326;2023-06-24T11:41:52;7.30;;;6.10;;
23658;SDS011;12006;42.666;23.326;2023-06-24T11:44:19;6.82;;;6.20;;
23658;SDS011;12006;42.666;23.326;2023-06-24T11:46:49;8.23;;;6.35;;
23658;SDS011;12006;42.666;23.326;2023-06-24T11:49:14;6.40;;;5.90;;
23658;SDS011;12006;42.666;23.326;2023-06-24T11:51:49;6.72;;;6.13;;
23658;SDS011;12006;42.666;23.326;2023-06-24T11:54:20;7.50;;;6.78;;
23658;SDS011;12006;42.666;23.326;2023-06-24T11:56:52;6.70;;;6.15;;
23658;SDS011;12006;42.666;23.326;2023-06-24T11:59:19;7.28;;;6.57;;
23658;SDS011;12006;42.666;23.326;2023-06-24T12:01:57;6.60;;;6.10;;
23658;SDS011;12006;42.666;23.326;2023-06-24T12:04:27;6.40;;;5.90;;
23658;SDS011;12006;42.666;23.326;2023-06-24T12:06:54;6.70;;;6.10;;
23658;SDS011;12006;42.666;23.326;2023-06-24T12:09:19;6.55;;;6.05;;
23658;SDS011;12006;42.666;23.326;2023-06-24T12:11:45;6.47;;;5.97;;
23658;SDS011;12006;42.666;23.326;2023-06-24T12:14:10;6.65;;;6.05;;
23658;SDS011;12006;42.666;23.326;2023-06-24T12:16:36;6.30;;;5.72;;
23658;SDS011;12006;42.666;23.326;2023-06-24T12:19:02;6.00;;;5.50;;
23658;SDS011;12006;42.666;23.326;2023-06-24T12:21:27;6.80;;;6.20;;
23658;SDS011;12006;42.666;23.326;2023-06-24T12:23:53;8.25;;;7.40;;
23658;SDS011;12006;42.666;23.326;2023-06-24T12:26:18;6.70;;;6.10;;
23658;SDS011;12006;42.666;23.326;2023-06-24T12:28:44;6.40;;;5.72;;
23658;SDS011;12006;42.666;23.326;2023-06-24T12:31:09;5.82;;;5.43;;
23658;SDS011;12006;42.666;23.326;2023-06-24T12:33:34;7.10;;;6.50;;
23658;SDS011;12006;42.666;23.326;2023-06-24T12:36:00;6.43;;;5.90;;
23658;SDS011;12006;42.666;23.326;2023-06-24T12:38:25;7.13;;;6.50;;
23658;SDS011;12006;42.666;23.326;2023-06-24T12:40:51;7.47;;;6.78;;
23658;SDS011;12006;42.666;23.326;2023-06-24T12:43:17;7.40;;;6.80;;
23658;SDS011;12006;42.666;23.326;2023-06-24T12:45:43;7.68;;;6.82;;
23658;SDS011;12006;42.666;23.326;2023-06-24T12:48:09;7.03;;;6.38;;
23658;SDS011;12006;42.666;23.326;2023-06-24T12:50:35;7.07;;;6.50;;
23658;SDS011;12006;42.666;23.326;2023-06-24T12:53:00;7.10;;;6.53;;
23658;SDS011;12006;42.666;23.326;2023-06-24T12:55:27;7.00;;;6.40;;
23658;SDS011;12006;42.666;23.326;2023-06-24T12:57:52;7.25;;;6.68;;
23658;SDS011;12006;42.666;23.326;2023-06-24T13:00:21;7.82;;;7.03;;
23658;SDS011;12006;42.666;23.326;2023-06-24T13:02:48;7.68;;;6.90;;
23658;SDS011;12006;42.666;23.326;2023-06-24T13:05:14;8.35;;;7.57;;
23658;SDS011;12006;42.666;23.326;2023-06-24T13:07:40;7.93;;;7.13;;
23658;SDS011;12006;42.666;23.326;2023-06-24T13:10:05;7.63;;;7.03;;
23658;SDS011;12006;42.666;23.326;2023-06-24T13:12:32;7.32;;;6.72;;
23658;SDS011;12006;42.666;23.326;2023-06-24T13:14:58;7.10;;;6.40;;
23658;SDS011;12006;42.666;23.326;2023-06-24T13:17:23;6.50;;;5.90;;
23658;SDS011;12006;42.666;23.326;2023-06-24T13:19:49;7.45;;;6.75;;
23658;SDS011;12006;42.666;23.326;2023-06-24T13:22:15;6.57;;;5.97;;
23658;SDS011;12006;42.666;23.326;2023-06-24T13:24:40;6.55;;;5.95;;
23658;SDS011;12006;42.666;23.326;2023-06-24T13:27:06;7.88;;;7.28;;
23658;SDS011;12006;42.666;23.326;2023-06-24T13:29:32;7.72;;;7.05;;
23658;SDS011;12006;42.666;23.326;2023-06-24T13:31:57;8.55;;;6.63;;
23658;SDS011;12006;42.666;23.326;2023-06-24T13:34:22;8.20;;;7.40;;
23658;SDS011;12006;42.666;23.326;2023-06-24T13:36:48;9.25;;;7.63;;
23658;SDS011;12006;42.666;23.326;2023-06-24T13:39:14;8.50;;;5.97;;
23658;SDS011;12006;42.666;23.326;2023-06-24T13:41:42;6.32;;;5.22;;
23658;SDS011;12006;42.666;23.326;2023-06-24T13:44:09;5.82;;;5.05;;
23658;SDS011;12006;42.666;23.326;2023-06-24T13:46:34;8.90;;;5.10;;
23658;SDS011;12006;42.666;23.326;2023-06-24T13:49:00;8.95;;;5.60;;
23658;SDS011;12006;42.666;23.326;2023-06-24T13:51:26;8.13;;;5.68;;
23658;SDS011;12006;42.666;23.326;2023-06-24T13:53:52;7.15;;;6.35;;
23658;SDS011;12006;42.666;23.326;2023-06-24T13:56:19;8.32;;;5.88;;
23658;SDS011;12006;42.666;23.326;2023-06-24T13:58:46;6.13;;;5.53;;
23658;SDS011;12006;42.666;23.326;2023-06-24T14:01:12;7.78;;;5.43;;
23658;SDS011;12006;42.666;23.326;2023-06-24T14:03:37;7.22;;;5.90;;
23658;SDS011;12006;42.666;23.326;2023-06-24T14:06:03;7.18;;;6.45;;
23658;SDS011;12006;42.666;23.326;2023-06-24T14:08:29;5.40;;;4.90;;
23658;SDS011;12006;42.666;23.326;2023-06-24T14:10:57;7.15;;;5.10;;
23658;SDS011;12006;42.666;23.326;2023-06-24T14:13:23;6.85;;;4.60;;
23658;SDS011;12006;42.666;23.326;2023-06-24T14:15:49;5.63;;;5.13;;
23658;SDS011;12006;42.666;23.326;2023-06-24T14:18:15;5.65;;;4.82;;
23658;SDS011;12006;42.666;23.326;2023-06-24T14:20:41;5.25;;;4.75;;
23658;SDS011;12006;42.666;23.326;2023-06-24T14:23:06;7.93;;;4.85;;
23658;SDS011;12006;42.666;23.326;2023-06-24T14:25:32;6.72;;;5.20;;
23658;SDS011;12006;42.666;23.326;2023-06-24T14:27:57;4.75;;;4.25;;
23658;SDS011;12006;42.666;23.326;2023-06-24T14:30:23;7.88;;;5.28;;
23658;SDS011;12006;42.666;23.326;2023-06-24T14:32:48;7.95;;;4.97;;
23658;SDS011;12006;42.666;23.326;2023-06-24T14:35:13;8.55;;;5.05;;
23658;SDS011;12006;42.666;23.326;2023-06-24T14:37:39;6.55;;;4.22;;
23658;SDS011;12006;42.666;23.326;2023-06-24T14:40:07;6.97;;;4.72;;
23658;SDS011;12006;42.666;23.326;2023-06-24T14:42:33;6.35;;;4.90;;
23658;SDS011;12006;42.666;23.326;2023-06-24T14:44:58;6.80;;;5.70;;
23658;SDS011;12006;42.666;23.326;2023-06-24T14:47:23;6.68;;;5.47;;
23658;SDS011;12006;42.666;23.326;2023-06-24T14:49:49;6.28;;;5.38;;
23658;SDS011;12006;42.666;23.326;2023-06-24T14:52:14;7.85;;;5.75;;
23658;SDS011;12006;42.666;23.326;2023-06-24T14:54:40;6.93;;;5.68;;
23658;SDS011;12006;42.666;23.326;2023-06-24T14:57:05;5.55;;;5.05;;
23658;SDS011;12006;42.666;23.326;2023-06-24T14:59:30;6.85;;;5.35;;
23658;SDS011;12006;42.666;23.326;2023-06-24T15:01:56;6.70;;;5.53;;
23658;SDS011;12006;42.666;23.326;2023-06-24T15:04:21;6.82;;;5.15;;
23658;SDS011;12006;42.666;23.326;2023-06-24T15:06:46;7.22;;;4.93;;
23658;SDS011;12006;42.666;23.326;2023-06-24T15:09:12;7.05;;;5.07;;
23658;SDS011;12006;42.666;23.326;2023-06-24T15:11:37;5.38;;;4.88;;
23658;SDS011;12006;42.666;23.326;2023-06-24T15:14:03;7.72;;;5.28;;
23658;SDS011;12006;42.666;23.326;2023-06-24T15:16:28;5.93;;;4.90;;
23658;SDS011;12006;42.666;23.326;2023-06-24T15:18:54;8.82;;;5.72;;
23658;SDS011;12006;42.666;23.326;2023-06-24T15:21:19;8.95;;;5.53;;
23658;SDS011;12006;42.666;23.326;2023-06-24T15:23:45;9.18;;;5.22;;
23658;SDS011;12006;42.666;23.326;2023-06-24T15:26:11;8.27;;;5.10;;
23658;SDS011;12006;42.666;23.326;2023-06-24T15:28:37;9.05;;;6.22;;
23658;SDS011;12006;42.666;23.326;2023-06-24T15:31:02;7.82;;;6.13;;
23658;SDS011;12006;42.666;23.326;2023-06-24T15:33:27;6.60;;;5.93;;
23658;SDS011;12006;42.666;23.326;2023-06-24T15:35:53;6.28;;;5.68;;
23658;SDS011;12006;42.666;23.326;2023-06-24T15:38:18;7.63;;;6.07;;
23658;SDS011;12006;42.666;23.326;2023-06-24T15:40:44;10.05;;;6.05;;
23658;SDS011;12006;42.666;23.326;2023-06-24T15:43:10;7.35;;;5.50;;
23658;SDS011;12006;42.666;23.326;2023-06-24T15:45:36;8.45;;;6.20;;
23658;SDS011;12006;42.666;23.326;2023-06-24T15:48:02;8.52;;;6.93;;
23658;SDS011;12006;42.666;23.326;2023-06-24T15:50:31;10.13;;;7.10;;
23658;SDS011;12006;42.666;23.326;2023-06-24T15:52:57;8.80;;;6.43;;
23658;SDS011;12006;42.666;23.326;2023-06-24T15:55:22;10.65;;;6.90;;
23658;SDS011;12006;42.666;23.326;2023-06-24T15:57:47;8.48;;;5.95;;
23658;SDS011;12006;42.666;23.326;2023-06-24T16:00:13;7.28;;;5.82;;
23658;SDS011;12006;42.666;23.326;2023-06-24T16:02:39;9.30;;;6.28;;
23658;SDS011;12006;42.666;23.326;2023-06-24T16:05:05;9.27;;;6.25;;
23658;SDS011;12006;42.666;23.326;2023-06-24T16:07:32;8.65;;;6.15;;
23658;SDS011;12006;42.666;23.326;2023-06-24T16:10:03;10.13;;;6.28;;
23658;SDS011;12006;42.666;23.326;2023-06-24T16:12:29;10.15;;;6.07;;
23658;SDS011;12006;42.666;23.326;2023-06-24T16:14:54;9.52;;;6.40;;